| time (UTC) | temp F | wind direction | speed MPH | gust MPH | rain 1hr in | rain 24hr in | rain mn in | humidity % | barometer mb |
| 20260903130518 | 64 | 248 | 5.0 | 11.0 | 0.00 | 0.00 | 0.00 | 46 | 1003.4 |
| 20260903125517 | 65 | 0 | 6.0 | 10.0 | 0.00 | 0.00 | 0.00 | 45 | 1003.3 |
| 20260903124517 | 65 | 248 | 3.0 | 8.0 | 0.00 | 0.00 | 0.00 | 49 | 1003.3 |
| 20260903123517 | 65 | 248 | 2.0 | 6.0 | 0.00 | 0.00 | 0.00 | 48 | 1003.4 |
| 20260903122517 | 65 | 248 | 3.0 | 10.0 | 0.00 | 0.00 | 0.00 | 47 | 1003.4 |
| 20260903121637 | 65 | 248 | 5.0 | 9.0 | 0.00 | 0.00 | 0.00 | 46 | 1003.5 |
| 20260903120517 | 65 | 248 | 5.0 | 12.0 | 0.00 | 0.00 | 0.00 | 47 | 1003.6 |
| 20260903115517 | 65 | 270 | 5.0 | 15.0 | 0.00 | 0.00 | 0.00 | 45 | 1003.5 |
| 20260903114517 | 64 | 270 | 6.0 | 15.0 | 0.00 | 0.00 | 0.00 | 50 | 1003.6 |
| 20260903113537 | 64 | 270 | 6.0 | 12.0 | 0.00 | 0.00 | 0.00 | 47 | 1003.6 |
| 20260903112517 | 64 | 248 | 6.0 | 11.0 | 0.00 | 0.00 | 0.00 | 48 | 1003.7 |
| 20260903111517 | 65 | 270 | 3.0 | 7.0 | 0.00 | 0.00 | 0.00 | 52 | 1003.8 |
| 20260903110517 | 64 | 248 | 5.0 | 13.0 | 0.00 | 0.00 | 0.00 | 50 | 1003.9 |
| 20260903105517 | 63 | 248 | 6.0 | 10.0 | 0.00 | 0.00 | 0.00 | 50 | 1003.9 |
| 20260903104517 | 62 | 248 | 6.0 | 12.0 | 0.00 | 0.00 | 0.00 | 50 | 1003.9 |
| 20260903103517 | 62 | 270 | 7.0 | 13.0 | 0.00 | 0.00 | 0.00 | 52 | 1004.0 |
| 20260903102517 | 61 | 225 | 3.0 | 6.0 | 0.00 | 0.00 | 0.00 | 56 | 1003.9 |
| 20260903101537 | 61 | 270 | 6.0 | 12.0 | 0.00 | 0.00 | 0.00 | 55 | 1004.0 |
| 20260903100537 | 61 | 270 | 6.0 | 11.0 | 0.00 | 0.00 | 0.00 | 54 | 1004.0 |
| 20260903095517 | 60 | 270 | 3.0 | 8.0 | 0.00 | 0.00 | 0.00 | 57 | 1003.9 |
| 20260903094517 | 60 | 270 | 6.0 | 11.0 | 0.00 | 0.00 | 0.00 | 55 | 1003.9 |
| 20260903093517 | 60 | 225 | 4.0 | 10.0 | 0.00 | 0.00 | 0.00 | 58 | 1003.9 |
| 20260903092517 | 60 | 248 | 3.0 | 7.0 | 0.00 | 0.00 | 0.00 | 59 | 1003.8 |
| 20260903091517 | 59 | 270 | 5.0 | 10.0 | 0.00 | 0.00 | 0.00 | 58 | 1003.9 |
| 20260903090517 | 59 | 270 | 4.0 | 9.0 | 0.00 | 0.00 | 0.00 | 60 | 1003.8 |
| 20260903085517 | 58 | 248 | 4.0 | 9.0 | 0.00 | 0.00 | 0.00 | 62 | 1003.9 |
| 20260903084517 | 57 | 270 | 4.0 | 7.0 | 0.00 | 0.00 | 0.00 | 65 | 1003.9 |
| 20260903083517 | 57 | 248 | 4.0 | 8.0 | 0.00 | 0.00 | 0.00 | 66 | 1004.0 |
| 20260903082517 | 56 | 270 | 4.0 | 8.0 | 0.00 | 0.00 | 0.00 | 66 | 1004.0 |
| 20260903081517 | 56 | 270 | 4.0 | 9.0 | 0.00 | 0.00 | 0.00 | 67 | 1003.9 |
| 20260903080537 | 55 | 270 | 4.0 | 7.0 | 0.00 | 0.00 | 0.00 | 67 | 1003.9 |
| 20260903075517 | 55 | 270 | 3.0 | 8.0 | 0.00 | 0.00 | 0.00 | 68 | 1003.9 |
| 20260903074517 | 55 | 270 | 5.0 | 10.0 | 0.00 | 0.00 | 0.00 | 68 | 1003.8 |
| 20260903073557 | 55 | 270 | 3.0 | 7.0 | 0.00 | 0.00 | 0.00 | 69 | 1003.8 |
| 20260903072517 | 54 | 248 | 4.0 | 8.0 | 0.00 | 0.00 | 0.00 | 70 | 1003.9 |
| 20260903071517 | 54 | 270 | 5.0 | 11.0 | 0.00 | 0.00 | 0.00 | 70 | 1003.8 |
| 20260903070517 | 54 | 270 | 6.0 | 12.0 | 0.00 | 0.00 | 0.00 | 69 | 1003.9 |
| 20260903065517 | 54 | 248 | 3.0 | 8.0 | 0.00 | 0.00 | 0.00 | 72 | 1003.9 |
| 20260903064537 | 53 | 225 | 5.0 | 12.0 | 0.00 | 0.00 | 0.00 | 73 | 1003.9 |
| 20260903063517 | 53 | 248 | 2.0 | 5.0 | 0.00 | 0.00 | 0.00 | 78 | 1004.0 |
| 20260903062537 | 53 | 270 | 2.0 | 6.0 | 0.00 | 0.00 | 0.00 | 78 | 1003.9 |
| 20260903061517 | 53 | 180 | 1.0 | 4.0 | 0.00 | 0.00 | 0.00 | 82 | 1003.9 |
| 20260903060517 | 51 | 180 | 3.0 | 4.0 | 0.00 | 0.00 | 0.00 | 84 | 1003.9 |
| 20260903055518 | 50 | 180 | 3.0 | 5.0 | 0.00 | 0.00 | 0.00 | 86 | 1003.8 |
| 20260903054517 | 49 | 158 | 2.0 | 5.0 | 0.00 | 0.00 | 0.00 | 88 | 1003.8 |
| 20260903053537 | 49 | 180 | 3.0 | 4.0 | 0.00 | 0.00 | 0.00 | 89 | 1003.7 |
| 20260903052537 | 48 | 203 | 3.0 | 5.0 | 0.00 | 0.00 | 0.00 | 90 | 1003.8 |
| 20260903051518 | 48 | 203 | 5.0 | 7.0 | 0.00 | 0.00 | 0.00 | 91 | 1003.6 |
| 20260903050517 | 47 | 203 | 4.0 | 6.0 | 0.00 | 0.00 | 0.00 | 92 | 1003.8 |
| 20260903045537 | 47 | 180 | 3.0 | 5.0 | 0.00 | 0.00 | 0.00 | 93 | 1003.8 |
| 20260903044517 | 47 | 180 | 3.0 | 5.0 | 0.00 | 0.00 | 0.00 | 94 | 1003.8 |
| 20260903043517 | 46 | 180 | 4.0 | 6.0 | 0.00 | 0.00 | 0.00 | 95 | 1003.7 |
| 20260903042517 | 45 | 180 | 2.0 | 4.0 | 0.00 | 0.00 | 0.00 | 95 | 1003.8 |
| 20260903041517 | 44 | 315 | 2.0 | 3.0 | 0.00 | 0.00 | 0.00 | 94 | 1003.6 |
| 20260903040517 | 44 | 158 | 2.0 | 3.0 | 0.00 | 0.00 | 0.00 | 94 | 1003.6 |
| 20260903035517 | 44 | 203 | 1.0 | 3.0 | 0.00 | 0.00 | 0.00 | 93 | 1003.6 |
| 20260903034517 | 44 | 158 | 2.0 | 3.0 | 0.00 | 0.00 | 0.00 | 93 | 1003.7 |
| 20260903033517 | 44 | 180 | 2.0 | 3.0 | 0.00 | 0.00 | 0.00 | 92 | 1003.6 |
| 20260903032517 | 44 | 158 | 1.0 | 3.0 | 0.00 | 0.00 | 0.00 | 92 | 1003.7 |
| 20260903031557 | 45 | 0.0 | 1.0 | 0.00 | 0.00 | 0.00 | 92 | 1003.8 | |
| 20260903030517 | 46 | 0.0 | 2.0 | 0.00 | 0.00 | 0.00 | 93 | 1003.8 | |
| 20260903025537 | 46 | 203 | 3.0 | 4.0 | 0.00 | 0.00 | 0.00 | 93 | 1003.8 |
| 20260903024517 | 46 | 180 | 2.0 | 3.0 | 0.00 | 0.00 | 0.00 | 93 | 1003.8 |
| 20260903023517 | 45 | 203 | 2.0 | 3.0 | 0.00 | 0.00 | 0.00 | 91 | 1003.9 |
| 20260903022517 | 45 | 158 | 1.0 | 2.0 | 0.00 | 0.00 | 0.00 | 91 | 1003.9 |
| 20260903021517 | 46 | 0.0 | 1.0 | 0.00 | 0.00 | 0.00 | 91 | 1004.0 | |
| 20260903020517 | 46 | 0.0 | 2.0 | 0.00 | 0.00 | 0.00 | 91 | 1004.1 | |
| 20260903015517 | 47 | 158 | 1.0 | 2.0 | 0.00 | 0.00 | 0.00 | 91 | 1004.1 |
| 20260903014517 | 47 | 180 | 3.0 | 4.0 | 0.00 | 0.00 | 0.00 | 91 | 1004.1 |
| 20260903013517 | 47 | 0.0 | 2.0 | 0.00 | 0.00 | 0.00 | 89 | 1004.2 | |
| 20260903012517 | 47 | 0.0 | 1.0 | 0.00 | 0.00 | 0.00 | 88 | 1004.2 | |
| 20260903011517 | 48 | 135 | 1.0 | 2.0 | 0.00 | 0.00 | 0.00 | 87 | 1004.3 |
| 20260903010517 | 48 | 270 | 1.0 | 2.0 | 0.00 | 0.00 | 0.00 | 87 | 1004.3 |
| 20260903005517 | 49 | 225 | 1.0 | 2.0 | 0.00 | 0.00 | 0.00 | 87 | 1004.3 |
| 20260903004517 | 50 | 338 | 2.0 | 3.0 | 0.00 | 0.00 | 0.00 | 86 | 1004.3 |
| 20260903003517 | 50 | 0.0 | 1.0 | 0.00 | 0.00 | 0.00 | 84 | 1004.5 | |
| 20260903002516 | 51 | 338 | 2.0 | 3.0 | 0.00 | 0.00 | 0.00 | 83 | 1004.4 |
| 20260903001516 | 52 | 315 | 1.0 | 2.0 | 0.00 | 0.00 | 0.00 | 82 | 1004.4 |
| 20260903000517 | 53 | 248 | 1.0 | 4.0 | 0.00 | 0.00 | 0.00 | 82 | 1004.4 |
| 20260902235517 | 53 | 225 | 2.0 | 6.0 | 0.00 | 0.00 | 0.00 | 81 | 1004.4 |
| 20260902234537 | 53 | 225 | 3.0 | 8.0 | 0.00 | 0.00 | 0.00 | 81 | 1004.5 |
| 20260902233517 | 53 | 203 | 3.0 | 7.0 | 0.00 | 0.00 | 0.00 | 80 | 1004.4 |
| 20260902232517 | 53 | 180 | 4.0 | 11.0 | 0.00 | 0.00 | 0.00 | 80 | 1004.4 |
| 20260902231517 | 53 | 203 | 2.0 | 4.0 | 0.00 | 0.00 | 0.00 | 80 | 1004.4 |
| 20260902230517 | 54 | 203 | 2.0 | 5.0 | 0.00 | 0.00 | 0.00 | 79 | 1004.5 |
| 20260902225517 | 54 | 180 | 3.0 | 7.0 | 0.00 | 0.00 | 0.00 | 78 | 1004.4 |
| 20260902224517 | 54 | 203 | 4.0 | 10.0 | 0.00 | 0.00 | 0.00 | 78 | 1004.5 |
| 20260902223516 | 54 | 203 | 3.0 | 7.0 | 0.00 | 0.00 | 0.00 | 78 | 1004.5 |
| 20260902222516 | 55 | 248 | 3.0 | 8.0 | 0.00 | 0.00 | 0.00 | 77 | 1004.6 |
| 20260902221517 | 55 | 203 | 4.0 | 8.0 | 0.00 | 0.00 | 0.00 | 76 | 1004.6 |
| 20260902220516 | 55 | 180 | 5.0 | 10.0 | 0.00 | 0.00 | 0.00 | 75 | 1004.5 |
| 20260902215516 | 56 | 203 | 5.0 | 14.0 | 0.00 | 0.00 | 0.00 | 75 | 1004.5 |
| 20260902214536 | 56 | 203 | 5.0 | 9.0 | 0.00 | 0.00 | 0.00 | 75 | 1004.6 |
| 20260902213516 | 56 | 203 | 5.0 | 12.0 | 0.00 | 0.00 | 0.00 | 74 | 1004.6 |
| 20260902212516 | 56 | 180 | 5.0 | 12.0 | 0.00 | 0.00 | 0.00 | 74 | 1004.6 |
| 20260902211516 | 56 | 225 | 5.0 | 11.0 | 0.00 | 0.00 | 0.00 | 73 | 1004.6 |
| 20260902210536 | 57 | 225 | 6.0 | 12.0 | 0.00 | 0.00 | 0.00 | 73 | 1004.5 |
| 20260902205516 | 57 | 203 | 6.0 | 14.0 | 0.00 | 0.00 | 0.00 | 72 | 1004.6 |
| 20260902204516 | 56 | 203 | 6.0 | 13.0 | 0.00 | 0.00 | 0.00 | 72 | 1004.5 |
| 20260902203516 | 56 | 225 | 5.0 | 11.0 | 0.00 | 0.00 | 0.00 | 72 | 1004.6 |
| 20260902202536 | 56 | 203 | 6.0 | 11.0 | 0.00 | 0.00 | 0.00 | 72 | 1004.6 |
| 20260902201516 | 56 | 203 | 4.0 | 9.0 | 0.00 | 0.00 | 0.00 | 71 | 1004.7 |
| 20260902200516 | 56 | 203 | 4.0 | 11.0 | 0.00 | 0.00 | 0.00 | 71 | 1004.7 |
| 20260902195516 | 56 | 225 | 4.0 | 8.0 | 0.00 | 0.00 | 0.00 | 69 | 1004.7 |
| 20260902194516 | 56 | 180 | 4.0 | 8.0 | 0.00 | 0.00 | 0.00 | 68 | 1004.7 |
| 20260902193516 | 56 | 203 | 4.0 | 7.0 | 0.00 | 0.00 | 0.00 | 68 | 1004.8 |
| 20260902192516 | 56 | 203 | 4.0 | 7.0 | 0.00 | 0.00 | 0.00 | 69 | 1004.9 |
| 20260902191516 | 56 | 203 | 2.0 | 4.0 | 0.00 | 0.00 | 0.00 | 69 | 1004.8 |
| 20260902190517 | 56 | 203 | 2.0 | 5.0 | 0.00 | 0.00 | 0.00 | 68 | 1004.8 |
| 20260902185516 | 57 | 203 | 2.0 | 6.0 | 0.00 | 0.00 | 0.00 | 67 | 1004.7 |
| 20260902184516 | 58 | 203 | 2.0 | 7.0 | 0.00 | 0.00 | 0.00 | 65 | 1004.7 |
| 20260902183516 | 58 | 203 | 3.0 | 7.0 | 0.00 | 0.00 | 0.00 | 64 | 1004.6 |
| 20260902182536 | 59 | 203 | 3.0 | 6.0 | 0.00 | 0.00 | 0.00 | 63 | 1004.6 |
| 20260902181536 | 59 | 180 | 3.0 | 8.0 | 0.00 | 0.00 | 0.00 | 62 | 1004.6 |
| 20260902180516 | 60 | 203 | 3.0 | 7.0 | 0.00 | 0.00 | 0.00 | 60 | 1004.6 |
| 20260902175516 | 61 | 203 | 3.0 | 5.0 | 0.00 | 0.00 | 0.00 | 60 | 1004.5 |
| 20260902174536 | 61 | 180 | 3.0 | 7.0 | 0.00 | 0.00 | 0.00 | 58 | 1004.5 |
| 20260902173516 | 62 | 225 | 4.0 | 11.0 | 0.00 | 0.00 | 0.00 | 57 | 1004.5 |
| 20260902172516 | 62 | 225 | 4.0 | 9.0 | 0.00 | 0.00 | 0.00 | 56 | 1004.4 |
| 20260902171516 | 62 | 225 | 4.0 | 11.0 | 0.00 | 0.00 | 0.00 | 55 | 1004.4 |
| 20260902170516 | 63 | 180 | 5.0 | 10.0 | 0.00 | 0.00 | 0.00 | 55 | 1004.3 |
| 20260902165516 | 64 | 203 | 4.0 | 12.0 | 0.00 | 0.00 | 0.00 | 56 | 1004.3 |
| 20260902164516 | 64 | 225 | 5.0 | 12.0 | 0.00 | 0.00 | 0.00 | 53 | 1004.3 |
| 20260902163536 | 64 | 225 | 3.0 | 8.0 | 0.00 | 0.00 | 0.00 | 53 | 1004.3 |
| 20260902162516 | 65 | 225 | 5.0 | 10.0 | 0.00 | 0.00 | 0.00 | 52 | 1004.3 |
| 20260902161516 | 65 | 225 | 5.0 | 12.0 | 0.00 | 0.00 | 0.00 | 51 | 1004.4 |
| 20260902160516 | 65 | 180 | 6.0 | 12.0 | 0.00 | 0.00 | 0.00 | 50 | 1004.3 |
| 20260902155516 | 65 | 225 | 6.0 | 13.0 | 0.00 | 0.00 | 0.00 | 50 | 1004.3 |
| 20260902154516 | 66 | 248 | 6.0 | 17.0 | 0.00 | 0.00 | 0.00 | 52 | 1004.3 |
| 20260902153516 | 66 | 225 | 7.0 | 14.0 | 0.00 | 0.00 | 0.00 | 49 | 1004.3 |
| 20260902152516 | 66 | 203 | 6.0 | 10.0 | 0.00 | 0.00 | 0.00 | 50 | 1004.2 |
| 20260902151516 | 66 | 225 | 7.0 | 13.0 | 0.00 | 0.00 | 0.00 | 50 | 1004.3 |
| 20260902150516 | 65 | 203 | 4.0 | 10.0 | 0.00 | 0.00 | 0.00 | 51 | 1004.3 |
| 20260902145516 | 66 | 180 | 6.0 | 12.0 | 0.00 | 0.00 | 0.00 | 49 | 1004.4 |
| 20260902144516 | 67 | 225 | 8.0 | 14.0 | 0.00 | 0.00 | 0.00 | 48 | 1004.3 |
| 20260902143516 | 67 | 225 | 8.0 | 15.0 | 0.00 | 0.00 | 0.00 | 48 | 1004.2 |
| 20260902142536 | 66 | 203 | 6.0 | 19.0 | 0.00 | 0.00 | 0.00 | 50 | 1004.2 |
| 20260902141536 | 66 | 203 | 6.0 | 14.0 | 0.00 | 0.00 | 0.00 | 49 | 1004.2 |
| 20260902140515 | 67 | 203 | 8.0 | 17.0 | 0.00 | 0.00 | 0.00 | 50 | 1004.2 |
| 20260902135516 | 67 | 203 | 8.0 | 17.0 | 0.00 | 0.00 | 0.00 | 49 | 1004.2 |
| 20260902134536 | 68 | 203 | 8.0 | 15.0 | 0.00 | 0.00 | 0.00 | 50 | 1004.2 |
| 20260902133515 | 68 | 225 | 8.0 | 15.0 | 0.00 | 0.00 | 0.00 | 50 | 1004.2 |
| 20260902132515 | 68 | 180 | 8.0 | 15.0 | 0.00 | 0.00 | 0.00 | 53 | 1004.1 |
| 20260902131516 | 68 | 203 | 10.0 | 16.0 | 0.00 | 0.00 | 0.00 | 53 | 1004.1 |